createdAt,value
2018-11-03T00:00:20.715Z,68.29
2018-11-03T00:02:50.683Z,68.45
2018-11-03T00:05:20.914Z,69.05
2018-11-03T00:07:51.089Z,69.37
2018-11-03T00:10:20.874Z,69.02
2018-11-03T00:12:52.054Z,69.55
2018-11-03T00:15:21.939Z,69.72
2018-11-03T00:17:52.439Z,70.12
2018-11-03T00:20:23.158Z,70.03
2018-11-03T00:22:54.375Z,69.94
2018-11-03T00:25:25.426Z,70.58
2018-11-03T00:27:56.407Z,70.79
2018-11-03T00:30:27.283Z,70.62
2018-11-03T00:32:58.449Z,71.08
2018-11-03T00:35:29.186Z,71.71
2018-11-03T00:38:00.422Z,71.85
2018-11-03T00:40:31.330Z,71.78
2018-11-03T00:43:02.165Z,71.57
2018-11-03T00:45:33.149Z,72.10
2018-11-03T00:48:05.169Z,71.75
2018-11-03T00:50:35.111Z,71.97
2018-11-03T00:53:06.574Z,72.18
2018-11-03T00:55:37.062Z,72.40
2018-11-03T00:58:08.603Z,72.61
2018-11-03T01:00:39.409Z,72.76
2018-11-03T01:03:10.211Z,72.70
2018-11-03T01:05:40.962Z,73.08
2018-11-03T01:08:12.406Z,73.37
2018-11-03T01:10:42.971Z,73.76
2018-11-03T01:13:15.295Z,73.88
2018-11-03T01:15:45.141Z,74.08
2018-11-03T01:18:16.898Z,74.30
2018-11-03T01:20:47.515Z,74.72
2018-11-03T01:23:18.173Z,74.58
2018-11-03T01:25:49.357Z,74.69
2018-11-03T01:28:20.127Z,75.03
2018-11-03T01:30:50.950Z,76.53
2018-11-03T01:33:23.884Z,76.22
2018-11-03T01:35:53.768Z,75.97
2018-11-03T01:38:24.328Z,76.03
2018-11-03T01:40:54.976Z,76.93
2018-11-03T01:43:25.677Z,79.72
2018-11-03T01:45:56.193Z,79.98
2018-11-03T01:48:27.277Z,79.05
2018-11-03T01:50:58.078Z,79.06
2018-11-03T01:53:29.447Z,78.46
2018-11-03T01:56:00.280Z,78.78
2018-11-03T01:58:31.209Z,81.33
2018-11-03T02:01:02.144Z,80.82
2018-11-03T02:03:33.145Z,80.36
2018-11-03T02:06:04.398Z,79.62
2018-11-03T02:08:35.221Z,79.66
2018-11-03T02:11:06.101Z,79.88
2018-11-03T02:13:37.803Z,79.58
2018-11-03T02:16:08.394Z,80.34
2018-11-03T02:18:39.156Z,80.56
2018-11-03T02:21:10.067Z,80.61
2018-11-03T02:23:41.476Z,81.33
2018-11-03T02:26:12.346Z,80.68
2018-11-03T02:28:43.891Z,80.45
2018-11-03T02:31:14.330Z,80.06
2018-11-03T02:33:45.254Z,81.53
2018-11-03T02:36:16.059Z,80.77
2018-11-03T02:38:47.432Z,81.38
2018-11-03T02:41:18.075Z,81.63
2018-11-03T02:43:49.447Z,81.12
2018-11-03T02:46:20.129Z,82.47
2018-11-03T02:48:51.436Z,81.44
2018-11-03T02:51:21.711Z,81.21
2018-11-03T02:53:52.616Z,81.79
2018-11-03T02:56:23.109Z,81.49
2018-11-03T02:58:54.456Z,81.41
2018-11-03T03:01:25.017Z,81.87
2018-11-03T03:03:56.481Z,81.70
2018-11-03T03:06:27.286Z,81.34
2018-11-03T03:08:58.146Z,80.90
2018-11-03T03:11:29.042Z,80.47
2018-11-03T03:14:00.522Z,81.21
2018-11-03T03:16:31.111Z,81.56
2018-11-03T03:19:02.108Z,81.45
2018-11-03T03:21:33.378Z,81.18
2018-11-03T03:24:04.523Z,81.45
2018-11-03T03:26:35.042Z,80.90
2018-11-03T03:29:06.989Z,81.48
2018-11-03T03:31:36.978Z,81.14
2018-11-03T03:34:07.170Z,81.60
2018-11-03T03:36:38.110Z,81.29
2018-11-03T03:39:11.304Z,81.69
2018-11-03T03:41:41.857Z,81.66
2018-11-03T03:44:11.854Z,81.83
2018-11-03T03:46:42.621Z,81.29
2018-11-03T03:49:13.318Z,81.69
2018-11-03T03:51:44.326Z,81.58
2018-11-03T03:54:15.093Z,81.83
2018-11-03T03:56:46.529Z,81.77
2018-11-03T03:59:17.109Z,81.57
2018-11-03T04:01:48.191Z,81.60
2018-11-03T04:04:19.314Z,81.71
2018-11-03T04:06:50.261Z,81.63
2018-11-03T04:09:21.034Z,81.68
2018-11-03T04:11:52.278Z,81.72
2018-11-03T04:14:22.950Z,81.61
2018-11-03T04:16:54.562Z,81.46
2018-11-03T04:19:25.977Z,81.57
2018-11-03T04:21:56.365Z,81.59
2018-11-03T04:24:26.208Z,81.48
2018-11-03T04:26:57.130Z,81.86
2018-11-03T04:29:28.408Z,81.75
2018-11-03T04:31:59.149Z,81.69
2018-11-03T04:34:30.118Z,81.62
2018-11-03T04:37:00.980Z,81.80
2018-11-03T04:39:32.587Z,81.72
2018-11-03T04:42:04.883Z,81.68
2018-11-03T04:44:34.788Z,81.69
2018-11-03T04:47:05.613Z,81.86
2018-11-03T04:49:36.222Z,81.63
2018-11-03T04:52:07.214Z,81.78
2018-11-03T04:54:38.321Z,81.66
2018-11-03T04:57:09.216Z,81.67
2018-11-03T04:59:40.122Z,81.88
2018-11-03T05:02:11.092Z,81.81
2018-11-03T05:04:42.503Z,81.98
2018-11-03T05:07:13.057Z,81.98
2018-11-03T05:09:44.188Z,81.83
2018-11-03T05:12:15.103Z,82.12
2018-11-03T05:14:46.597Z,82.28
2018-11-03T05:17:17.122Z,82.25
2018-11-03T05:19:48.214Z,82.23
2018-11-03T05:22:19.042Z,82.03
2018-11-03T05:24:50.333Z,82.43
2018-11-03T05:27:20.908Z,82.38
2018-11-03T05:29:52.554Z,82.37
2018-11-03T05:32:23.161Z,82.49
2018-11-03T05:34:54.093Z,82.67
2018-11-03T05:37:25.405Z,82.65
2018-11-03T05:39:56.088Z,82.67
2018-11-03T05:42:27.309Z,82.68
2018-11-03T05:44:58.114Z,82.62
2018-11-03T05:47:28.983Z,82.80
2018-11-03T05:50:00.553Z,82.78
2018-11-03T05:52:31.133Z,82.88
2018-11-03T05:55:02.134Z,82.80
2018-11-03T05:57:33.114Z,82.86
2018-11-03T06:00:04.562Z,82.72
2018-11-03T06:02:35.105Z,82.85
2018-11-03T06:05:06.693Z,82.84
2018-11-03T06:07:37.132Z,82.98
2018-11-03T06:10:08.893Z,82.82
2018-11-03T06:12:39.554Z,83.02
2018-11-03T06:15:14.132Z,83.37
2018-11-03T06:17:44.082Z,84.37
2018-11-03T06:20:13.911Z,83.99
2018-11-03T06:22:44.001Z,83.71
2018-11-03T06:25:14.235Z,84.04
2018-11-03T06:27:45.151Z,83.93
2018-11-03T06:30:16.002Z,83.85
2018-11-03T06:32:47.353Z,84.16
2018-11-03T06:35:18.081Z,84.63
2018-11-03T06:37:49.201Z,84.62
2018-11-03T06:40:19.913Z,84.91
2018-11-03T06:42:51.546Z,85.43
2018-11-03T06:45:21.998Z,85.05
2018-11-03T06:47:53.390Z,84.37
2018-11-03T06:50:24.205Z,85.43
2018-11-03T06:52:55.288Z,85.89
2018-11-03T06:55:25.973Z,86.11
2018-11-03T06:57:57.369Z,85.87
2018-11-03T07:00:28.098Z,86.56
2018-11-03T07:02:59.093Z,86.45
2018-11-03T07:05:30.343Z,87.02
2018-11-03T07:08:01.139Z,86.91
2018-11-03T07:10:32.033Z,86.67
2018-11-03T07:13:03.462Z,86.94
2018-11-03T07:15:34.062Z,87.14
2018-11-03T07:18:05.591Z,86.57
2018-11-03T07:20:36.009Z,86.81
2018-11-03T07:23:07.450Z,86.36
2018-11-03T07:25:38.347Z,86.37
2018-11-03T07:28:09.109Z,86.49
2018-11-03T07:30:39.918Z,86.32
2018-11-03T07:33:11.461Z,86.33
2018-11-03T07:35:42.037Z,86.67
2018-11-03T07:38:13.410Z,86.81
2018-11-03T07:40:44.352Z,86.38
2018-11-03T07:43:15.059Z,86.41
2018-11-03T07:45:46.625Z,86.61
2018-11-03T07:48:25.427Z,86.80
2018-11-03T07:50:55.507Z,86.38
2018-11-03T07:53:25.962Z,86.30
2018-11-03T07:55:55.777Z,86.47
2018-11-03T07:58:25.867Z,86.60
2018-11-03T08:00:55.931Z,86.42
2018-11-03T08:03:25.855Z,86.62
2018-11-03T08:05:56.552Z,86.34
2018-11-03T08:08:26.925Z,87.01
2018-11-03T08:10:56.830Z,87.55
2018-11-03T08:13:27.404Z,87.35
2018-11-03T08:15:58.104Z,87.18
2018-11-03T08:18:29.529Z,87.38
2018-11-03T08:21:00.218Z,87.44
2018-11-03T08:23:31.259Z,87.27
2018-11-03T08:26:02.027Z,87.48
2018-11-03T08:28:33.333Z,87.67
2018-11-03T08:31:04.416Z,87.18
2018-11-03T08:33:35.121Z,87.47
2018-11-03T08:36:06.314Z,87.70
2018-11-03T08:38:37.538Z,89.06
2018-11-03T08:41:08.243Z,89.48
2018-11-03T08:43:39.166Z,89.17
2018-11-03T08:46:16.997Z,88.99
2018-11-03T08:48:47.005Z,88.92
2018-11-03T08:51:16.919Z,88.87
2018-11-03T08:53:46.830Z,88.49
2018-11-03T08:56:17.148Z,88.35
2018-11-03T08:58:46.944Z,88.38
2018-11-03T09:01:16.803Z,88.19
2018-11-03T09:03:46.807Z,87.91
2018-11-03T09:06:17.357Z,87.55
2018-11-03T09:08:48.072Z,87.81
2018-11-03T09:11:19.629Z,87.51
2018-11-03T09:13:50.122Z,87.18
2018-11-03T09:16:20.989Z,86.81
2018-11-03T09:18:52.771Z,87.01
2018-11-03T09:21:23.624Z,87.23
2018-11-03T09:23:54.189Z,87.07
2018-11-03T09:26:25.102Z,86.76
2018-11-03T09:28:56.096Z,86.76
2018-11-03T09:31:27.512Z,86.62
2018-11-03T09:33:58.037Z,86.56
2018-11-03T09:36:29.493Z,86.76
2018-11-03T09:39:00.048Z,86.60
2018-11-03T09:41:31.059Z,86.62
2018-11-03T09:44:02.283Z,86.80
2018-11-03T09:46:34.120Z,86.53
2018-11-03T09:49:04.013Z,86.29
2018-11-03T09:51:35.350Z,86.33
2018-11-03T09:54:06.729Z,86.52
2018-11-03T09:56:37.380Z,86.64
2018-11-03T09:59:08.076Z,86.79
2018-11-03T10:01:39.454Z,86.67
2018-11-03T10:04:10.178Z,86.59
2018-11-03T10:06:41.235Z,89.36
2018-11-03T10:09:12.078Z,85.56
2018-11-03T10:11:43.426Z,83.53
2018-11-03T10:14:13.978Z,83.46
2018-11-03T10:16:45.417Z,83.62
2018-11-03T10:19:15.985Z,83.87
2018-11-03T10:21:47.354Z,84.16
2018-11-03T10:24:18.267Z,84.43
2018-11-03T10:26:49.121Z,84.47
2018-11-03T10:29:20.347Z,84.73
2018-11-03T10:31:51.119Z,84.68
2018-11-03T10:34:21.970Z,84.76
2018-11-03T10:36:53.271Z,84.97
2018-11-03T10:39:24.012Z,84.93
2018-11-03T10:41:55.311Z,85.23
2018-11-03T10:44:26.020Z,84.98
2018-11-03T10:46:57.101Z,85.12
2018-11-03T10:49:27.972Z,85.11
2018-11-03T10:51:59.341Z,85.15
2018-11-03T10:54:30.099Z,84.97
2018-11-03T10:57:01.366Z,85.51
2018-11-03T10:59:32.033Z,85.34
2018-11-03T11:02:08.369Z,85.14
2018-11-03T11:04:43.006Z,85.51
2018-11-03T11:07:17.889Z,85.35
2018-11-03T11:09:52.564Z,85.77
2018-11-03T11:12:44.247Z,85.31
2018-11-03T11:15:14.014Z,86.12
2018-11-03T11:17:43.752Z,85.93
2018-11-03T11:20:13.758Z,86.73
2018-11-03T11:22:43.548Z,86.47
2018-11-03T11:25:13.638Z,86.59
2018-11-03T11:27:43.638Z,86.31
2018-11-03T11:30:13.786Z,86.20
2018-11-03T11:32:43.632Z,86.18
2018-11-03T11:35:13.624Z,86.19
2018-11-03T11:37:43.767Z,86.15
2018-11-03T11:40:14.042Z,86.24
2018-11-03T11:42:43.942Z,86.72
2018-11-03T11:45:13.923Z,86.27
2018-11-03T11:47:44.143Z,85.98
2018-11-03T11:50:14.577Z,85.74
2018-11-03T11:52:44.521Z,86.17
2018-11-03T11:55:14.766Z,86.43
2018-11-03T11:57:44.765Z,86.43
2018-11-03T12:00:14.802Z,85.94
2018-11-03T12:02:44.659Z,86.08
2018-11-03T12:05:15.052Z,85.77
2018-11-03T12:07:45.417Z,85.71
2018-11-03T12:10:15.376Z,85.64
2018-11-03T12:12:45.560Z,85.94
2018-11-03T12:15:15.925Z,85.98
2018-11-03T12:17:45.728Z,85.82
2018-11-03T12:20:15.887Z,85.67
2018-11-03T12:22:45.717Z,86.03
2018-11-03T12:25:15.964Z,86.65
2018-11-03T12:27:45.903Z,85.07
2018-11-03T12:30:16.385Z,84.71
2018-11-03T12:32:46.945Z,84.68
2018-11-03T12:35:16.876Z,84.88
2018-11-03T12:37:46.745Z,85.07
2018-11-03T12:40:17.292Z,84.53
2018-11-03T12:42:47.086Z,84.88
2018-11-03T12:45:17.204Z,84.69
2018-11-03T12:47:46.916Z,84.23
2018-11-03T12:50:18.649Z,84.70
2018-11-03T12:52:48.954Z,84.69
2018-11-03T12:55:18.953Z,84.59
2018-11-03T12:57:49.328Z,84.63
2018-11-03T13:00:20.012Z,84.70
2018-11-03T13:02:51.310Z,84.77
2018-11-03T13:05:22.292Z,84.52
2018-11-03T13:07:53.128Z,84.53
2018-11-03T13:10:24.267Z,84.47
2018-11-03T13:12:55.169Z,84.30
2018-11-03T13:15:26.000Z,84.47
2018-11-03T13:17:57.440Z,85.20
2018-11-03T13:20:28.052Z,84.83
2018-11-03T13:22:59.494Z,84.76
2018-11-03T13:25:30.019Z,84.84
2018-11-03T13:28:01.405Z,84.71
2018-11-03T13:30:36.748Z,85.06
2018-11-03T13:33:06.755Z,85.71
2018-11-03T13:35:36.570Z,86.09
2018-11-03T13:38:06.993Z,85.87
2018-11-03T13:40:36.936Z,85.38
2018-11-03T13:43:07.020Z,85.07
2018-11-03T13:45:38.571Z,84.83
2018-11-03T13:48:10.124Z,85.20
2018-11-03T13:50:40.150Z,85.21
2018-11-03T13:53:11.015Z,85.42
2018-11-03T13:55:42.480Z,85.36
2018-11-03T13:58:13.118Z,85.14
2018-11-03T14:00:44.097Z,85.18
2018-11-03T14:03:15.386Z,84.75
2018-11-03T14:05:46.050Z,84.67
2018-11-03T14:08:17.517Z,84.67
2018-11-03T14:10:48.174Z,84.59
2018-11-03T14:13:19.388Z,84.76
2018-11-03T14:15:50.154Z,84.83
2018-11-03T14:18:20.997Z,84.86
2018-11-03T14:20:52.391Z,84.68
2018-11-03T14:23:22.954Z,84.82
2018-11-03T14:25:54.458Z,85.01
2018-11-03T14:28:26.363Z,85.16
2018-11-03T14:30:56.208Z,85.15
2018-11-03T14:33:27.095Z,85.10
2018-11-03T14:35:58.078Z,85.09
2018-11-03T14:38:29.340Z,85.22
2018-11-03T14:41:00.421Z,85.36
2018-11-03T14:43:31.013Z,85.46
2018-11-03T14:46:02.504Z,85.39
2018-11-03T14:48:33.206Z,85.50
2018-11-03T14:51:04.349Z,85.44
2018-11-03T14:53:34.978Z,85.22
2018-11-03T14:56:07.043Z,85.66
2018-11-03T14:58:37.180Z,85.66
2018-11-03T15:01:08.298Z,85.65
2018-11-03T15:03:39.276Z,85.45
2018-11-03T15:06:10.334Z,85.72
2018-11-03T15:08:41.424Z,85.70
2018-11-03T15:11:12.239Z,85.54
2018-11-03T15:13:43.295Z,85.69
2018-11-03T15:16:14.230Z,85.55
2018-11-03T15:18:45.133Z,85.62
2018-11-03T15:21:16.164Z,85.46
2018-11-03T15:23:47.077Z,85.77
2018-11-03T15:26:18.040Z,85.73
2018-11-03T15:28:49.464Z,85.69
2018-11-03T15:31:20.088Z,85.74
2018-11-03T15:33:51.296Z,85.71
2018-11-03T15:36:22.260Z,85.90
2018-11-03T15:38:53.198Z,85.78
2018-11-03T15:41:24.329Z,85.82
2018-11-03T15:43:55.092Z,85.80
2018-11-03T15:46:26.637Z,85.78
2018-11-03T15:48:57.141Z,85.93
2018-11-03T15:51:28.474Z,86.11
2018-11-03T15:53:59.249Z,86.20
2018-11-03T15:56:31.390Z,85.84
2018-11-03T15:59:01.401Z,85.74
2018-11-03T16:01:32.055Z,85.98
2018-11-03T16:04:03.585Z,86.06
2018-11-03T16:06:34.298Z,86.02
2018-11-03T16:09:06.233Z,86.26
2018-11-03T16:11:36.239Z,86.19
2018-11-03T16:14:08.683Z,85.96
2018-11-03T16:16:38.809Z,86.00
2018-11-03T16:19:09.760Z,86.10
2018-11-03T16:21:40.958Z,86.03
2018-11-03T16:24:11.644Z,86.17
2018-11-03T16:26:42.177Z,86.14
2018-11-03T16:29:13.992Z,86.46
2018-11-03T16:31:44.768Z,86.40
2018-11-03T16:34:15.865Z,86.40
2018-11-03T16:36:50.375Z,86.30
2018-11-03T16:39:20.652Z,86.28
2018-11-03T16:41:51.085Z,86.42
2018-11-03T16:44:21.193Z,86.09
2018-11-03T16:46:51.159Z,86.24
2018-11-03T16:49:22.574Z,86.31
2018-11-03T16:51:52.832Z,86.44
2018-11-03T16:54:27.574Z,86.38
2018-11-03T16:56:59.227Z,86.51
2018-11-03T16:59:29.786Z,86.18
2018-11-03T17:02:00.035Z,86.25
2018-11-03T17:04:30.352Z,86.50
2018-11-03T17:07:01.731Z,86.95
2018-11-03T17:09:32.191Z,86.40
2018-11-03T17:12:03.009Z,86.27
2018-11-03T17:14:33.462Z,86.78
2018-11-03T17:17:04.530Z,86.84
2018-11-03T17:19:35.163Z,87.47
2018-11-03T17:22:05.235Z,87.09
2018-11-03T17:24:35.479Z,87.55
2018-11-03T17:27:06.014Z,87.41
2018-11-03T17:29:38.088Z,87.08
2018-11-03T17:32:08.282Z,87.12
2018-11-03T17:34:39.111Z,87.19
2018-11-03T17:37:10.511Z,86.97
2018-11-03T17:39:41.173Z,87.07
2018-11-03T17:42:12.822Z,87.40
2018-11-03T17:44:43.585Z,87.31
2018-11-03T17:47:14.807Z,86.68
2018-11-03T17:49:45.788Z,87.15
2018-11-03T17:52:16.574Z,87.25
2018-11-03T17:54:47.968Z,87.28
2018-11-03T17:57:18.543Z,86.51
2018-11-03T17:59:49.486Z,86.65
2018-11-03T18:02:20.332Z,86.86
2018-11-03T18:04:52.344Z,87.09
2018-11-03T18:07:22.737Z,86.86
2018-11-03T18:09:54.686Z,87.01
2018-11-03T18:12:24.850Z,86.93
2018-11-03T18:14:55.781Z,86.76
2018-11-03T18:17:26.554Z,86.82
2018-11-03T18:19:57.931Z,86.73
2018-11-03T18:22:29.510Z,87.02
2018-11-03T18:25:00.048Z,87.29
2018-11-03T18:27:31.254Z,87.10
2018-11-03T18:30:01.602Z,87.61
2018-11-03T18:32:32.552Z,87.35
2018-11-03T18:35:04.369Z,87.35
2018-11-03T18:37:34.984Z,87.28
2018-11-03T18:40:06.859Z,87.62
2018-11-03T18:42:37.416Z,87.65
2018-11-03T18:45:09.305Z,88.03
2018-11-03T18:47:40.099Z,88.09
2018-11-03T18:50:14.035Z,88.15
2018-11-03T18:52:44.315Z,87.28
2018-11-03T18:55:15.928Z,87.78
2018-11-03T18:57:47.828Z,87.78
2018-11-03T19:00:19.409Z,87.70
2018-11-03T19:02:51.607Z,88.17
2018-11-03T19:05:22.663Z,87.81
2018-11-03T19:07:54.015Z,88.58
2018-11-03T19:10:27.329Z,88.98
2018-11-03T19:12:59.675Z,88.76
2018-11-03T19:15:30.948Z,88.69
2018-11-03T19:18:03.837Z,88.83
2018-11-03T19:20:36.854Z,89.06
2018-11-03T19:23:09.253Z,89.14
2018-11-03T19:25:41.526Z,88.28
2018-11-03T19:28:14.124Z,88.15
2018-11-03T19:30:45.311Z,88.79
2018-11-03T19:33:16.003Z,89.85
2018-11-03T19:35:47.377Z,88.34
2018-11-03T19:38:18.896Z,89.45
2018-11-03T19:40:50.455Z,89.58
2018-11-03T19:43:22.289Z,88.45
2018-11-03T19:45:53.447Z,88.36
2018-11-03T19:48:24.129Z,89.21
2018-11-03T19:50:56.986Z,89.11
2018-11-03T19:53:27.169Z,89.73
2018-11-03T19:55:58.029Z,89.72
2018-11-03T19:58:28.437Z,89.25
2018-11-03T20:00:59.667Z,89.98
2018-11-03T20:03:30.424Z,89.60
2018-11-03T20:06:01.316Z,89.26
2018-11-03T20:08:32.767Z,89.16
2018-11-03T20:11:03.197Z,88.80
2018-11-03T20:13:33.814Z,89.19
2018-11-03T20:16:05.212Z,89.22
2018-11-03T20:18:37.790Z,89.62
2018-11-03T20:21:09.433Z,89.08
2018-11-03T20:23:40.300Z,89.13
2018-11-03T20:26:11.536Z,89.08
2018-11-03T20:28:43.710Z,88.83
2018-11-03T20:31:14.237Z,89.29
2018-11-03T20:33:44.858Z,89.33
2018-11-03T20:36:15.957Z,89.27
2018-11-03T20:38:46.398Z,89.31
2018-11-03T20:41:17.520Z,89.23
2018-11-03T20:43:49.780Z,89.12
2018-11-03T20:46:21.776Z,89.89
2018-11-03T20:48:54.042Z,89.03
2018-11-03T20:51:24.800Z,89.32
2018-11-03T20:53:55.153Z,89.34
2018-11-03T20:56:26.831Z,89.67
2018-11-03T20:58:58.888Z,90.21
2018-11-03T21:01:29.356Z,90.24
2018-11-03T21:03:59.991Z,90.58
2018-11-03T21:06:31.993Z,90.72
2018-11-03T21:09:02.006Z,90.16
2018-11-03T21:11:32.206Z,90.09
2018-11-03T21:14:02.281Z,90.55
2018-11-03T21:16:36.265Z,90.34
2018-11-03T21:19:07.872Z,90.57
2018-11-03T21:21:38.211Z,90.60
2018-11-03T21:24:09.241Z,91.50
2018-11-03T21:26:39.755Z,91.54
2018-11-03T21:29:09.855Z,90.99
2018-11-03T21:31:40.006Z,91.30
2018-11-03T21:34:10.090Z,90.72
2018-11-03T21:36:39.919Z,91.22
2018-11-03T21:39:11.923Z,91.32
2018-11-03T21:41:42.112Z,91.29
2018-11-03T21:44:11.882Z,90.96
2018-11-03T21:46:44.775Z,91.35
2018-11-03T21:49:14.792Z,90.69
2018-11-03T21:51:44.805Z,90.77
2018-11-03T21:54:14.927Z,90.27
2018-11-03T21:56:45.088Z,90.92
2018-11-03T21:59:15.257Z,90.85
2018-11-03T22:01:45.260Z,90.85
2018-11-03T22:04:15.914Z,91.57
2018-11-03T22:06:46.058Z,91.33
2018-11-03T22:09:16.512Z,91.02
2018-11-03T22:11:46.996Z,91.04
2018-11-03T22:14:16.966Z,90.92
2018-11-03T22:17:02.870Z,91.59
2018-11-03T22:19:35.501Z,91.64
2018-11-03T22:22:06.088Z,91.08
2018-11-03T22:24:35.943Z,91.93
2018-11-03T22:27:06.017Z,91.89
2018-11-03T22:32:47.118Z,91.74
2018-11-03T22:35:19.140Z,91.57
2018-11-03T22:37:49.615Z,91.99
2018-11-03T22:40:20.183Z,91.97
2018-11-03T22:42:50.972Z,91.86
2018-11-03T22:45:21.217Z,91.70
2018-11-03T22:47:51.924Z,91.91
2018-11-03T22:50:27.354Z,92.27
2018-11-03T22:52:58.872Z,92.72
2018-11-03T22:55:28.944Z,92.65
2018-11-03T22:58:00.006Z,93.11
2018-11-03T23:00:30.535Z,92.34
2018-11-03T23:03:01.221Z,92.08
2018-11-03T23:05:31.682Z,92.12
2018-11-03T23:08:01.931Z,92.28
2018-11-03T23:10:32.017Z,92.30
2018-11-03T23:13:02.644Z,92.51
2018-11-03T23:15:32.995Z,92.22
2018-11-03T23:18:03.180Z,92.12
2018-11-03T23:20:33.954Z,91.63
2018-11-03T23:23:04.122Z,91.97
2018-11-03T23:25:34.740Z,92.10
2018-11-03T23:28:06.280Z,92.26
2018-11-03T23:30:36.577Z,92.15
2018-11-03T23:33:07.011Z,92.09
2018-11-03T23:35:37.579Z,92.43
2018-11-03T23:38:08.338Z,91.89
2018-11-03T23:40:38.948Z,92.22
2018-11-03T23:43:09.655Z,92.23
2018-11-03T23:45:40.910Z,92.61
2018-11-03T23:48:10.852Z,92.19
2018-11-03T23:50:41.509Z,92.26
2018-11-03T23:53:11.598Z,92.70
2018-11-03T23:55:42.076Z,91.96
2018-11-03T23:58:12.281Z,92.40
